createdAt,value
2023-04-07T00:01:38.283Z,6.10
2023-04-07T00:04:05.352Z,6.10
2023-04-07T00:06:32.856Z,6.20
2023-04-07T00:08:59.705Z,6.20
2023-04-07T00:11:26.547Z,6.10
2023-04-07T00:13:53.739Z,6.20
2023-04-07T00:16:20.902Z,6.00
2023-04-07T00:18:47.821Z,6.00
2023-04-07T00:21:14.625Z,6.00
2023-04-07T00:23:42.904Z,6.00
2023-04-07T00:26:09.839Z,6.00
2023-04-07T00:28:37.716Z,6.00
2023-04-07T00:31:04.663Z,6.00
2023-04-07T00:33:31.600Z,6.00
2023-04-07T00:35:58.768Z,5.90
2023-04-07T00:38:25.844Z,5.90
2023-04-07T00:40:59.307Z,5.80
2023-04-07T00:43:26.591Z,5.90
2023-04-07T00:45:54.409Z,5.80
2023-04-07T00:48:21.760Z,6.00
2023-04-07T00:50:48.659Z,5.80
2023-04-07T00:53:16.865Z,5.80
2023-04-07T00:55:43.973Z,5.80
2023-04-07T00:58:11.080Z,5.80
2023-04-07T01:00:50.997Z,5.80
2023-04-07T01:03:35.687Z,5.80
2023-04-07T01:06:05.644Z,5.70
2023-04-07T01:08:54.014Z,5.80
2023-04-07T01:11:28.252Z,5.70
2023-04-07T01:13:57.476Z,5.70
2023-04-07T01:16:30.594Z,5.70
2023-04-07T01:19:27.112Z,5.60
2023-04-07T01:21:56.297Z,5.60
2023-04-07T01:24:42.971Z,5.60
2023-04-07T01:27:25.269Z,5.60
2023-04-07T01:29:53.841Z,5.60
2023-04-07T01:32:22.008Z,5.50
2023-04-07T01:34:50.671Z,5.50
2023-04-07T01:37:18.236Z,5.50
2023-04-07T01:39:45.275Z,5.50
2023-04-07T01:42:12.497Z,5.60
2023-04-07T01:44:40.008Z,5.50
2023-04-07T01:47:07.145Z,5.50
2023-04-07T01:49:36.617Z,5.50
2023-04-07T01:52:04.534Z,5.50
2023-04-07T01:54:31.866Z,5.50
2023-04-07T01:56:58.704Z,5.50
2023-04-07T01:59:25.722Z,5.40
2023-04-07T02:01:52.860Z,5.40
2023-04-07T02:04:25.709Z,5.30
2023-04-07T02:06:58.520Z,5.30
2023-04-07T02:09:27.370Z,5.30
2023-04-07T02:11:58.381Z,5.40
2023-04-07T02:14:26.130Z,5.30
2023-04-07T02:16:53.794Z,5.20
2023-04-07T02:19:21.163Z,5.30
2023-04-07T02:21:51.373Z,5.30
2023-04-07T02:24:21.831Z,5.20
2023-04-07T02:26:48.870Z,5.20
2023-04-07T02:29:15.994Z,5.10
2023-04-07T02:31:42.960Z,5.10
2023-04-07T02:34:09.869Z,5.20
2023-04-07T02:36:36.808Z,5.10
2023-04-07T02:39:03.922Z,5.10
2023-04-07T02:41:30.875Z,5.10
2023-04-07T02:43:57.858Z,5.30
2023-04-07T02:46:24.986Z,5.00
2023-04-07T02:48:52.356Z,5.00
2023-04-07T02:51:19.252Z,5.10
2023-04-07T02:53:46.178Z,5.30
2023-04-07T02:56:12.989Z,5.00
2023-04-07T02:58:39.896Z,5.00
2023-04-07T03:01:06.828Z,5.00
2023-04-07T03:03:33.735Z,5.00
2023-04-07T03:06:00.685Z,4.90
2023-04-07T03:08:27.897Z,4.80
2023-04-07T03:10:54.728Z,4.80
2023-04-07T03:13:21.728Z,4.70
2023-04-07T03:15:48.583Z,4.70
2023-04-07T03:18:15.731Z,4.80
2023-04-07T03:20:42.799Z,4.70
2023-04-07T03:23:09.687Z,4.60
2023-04-07T03:25:36.658Z,4.60
2023-04-07T03:28:03.614Z,4.70
2023-04-07T03:30:30.547Z,4.60
2023-04-07T03:32:57.423Z,4.60
2023-04-07T03:35:24.417Z,4.60
2023-04-07T03:37:51.316Z,4.60
2023-04-07T03:40:18.255Z,4.60
2023-04-07T03:42:46.791Z,4.50
2023-04-07T03:45:13.726Z,4.50
2023-04-07T03:47:41.297Z,4.50
2023-04-07T03:50:08.560Z,4.40
2023-04-07T03:52:35.362Z,4.40
2023-04-07T03:55:02.264Z,4.50
2023-04-07T03:57:29.276Z,4.40
2023-04-07T03:59:56.345Z,4.40
2023-04-07T04:02:23.352Z,4.40
2023-04-07T04:04:50.415Z,4.50
2023-04-07T04:07:17.243Z,4.40
2023-04-07T04:09:44.096Z,4.40
2023-04-07T04:12:10.890Z,4.40
2023-04-07T04:14:37.835Z,4.30
2023-04-07T04:17:05.397Z,4.20
2023-04-07T04:19:32.648Z,4.20
2023-04-07T04:21:59.504Z,4.30
2023-04-07T04:24:26.332Z,4.20
2023-04-07T04:26:53.147Z,4.30
2023-04-07T04:29:20.327Z,4.40
2023-04-07T04:31:47.216Z,4.30
2023-04-07T04:34:14.073Z,4.20
2023-04-07T04:36:41.638Z,4.20
2023-04-07T04:39:08.580Z,4.10
2023-04-07T04:41:35.403Z,4.10
2023-04-07T04:44:02.204Z,4.00
2023-04-07T04:46:29.048Z,4.10
2023-04-07T04:48:56.570Z,4.00
2023-04-07T04:51:23.761Z,4.00
2023-04-07T04:53:50.829Z,4.00
2023-04-07T04:56:18.009Z,4.00
2023-04-07T04:58:47.590Z,4.00
2023-04-07T05:01:14.695Z,3.90
2023-04-07T05:03:41.783Z,3.90
2023-04-07T05:06:08.784Z,4.00
2023-04-07T05:08:35.659Z,4.00
2023-04-07T05:11:02.553Z,4.00
2023-04-07T05:13:31.051Z,4.00
2023-04-07T05:15:58.044Z,4.10
2023-04-07T05:18:24.993Z,4.10
2023-04-07T05:20:51.817Z,4.10
2023-04-07T05:23:18.702Z,4.10
2023-04-07T05:25:45.787Z,4.10
2023-04-07T05:28:12.647Z,4.10
2023-04-07T05:30:39.527Z,4.20
2023-04-07T05:33:06.333Z,4.20
2023-04-07T05:35:33.257Z,4.30
2023-04-07T05:38:00.121Z,4.30
2023-04-07T05:40:26.967Z,4.40
2023-04-07T05:42:53.841Z,4.40
2023-04-07T05:45:20.840Z,4.50
2023-04-07T05:47:51.308Z,4.50
2023-04-07T05:50:18.657Z,4.50
2023-04-07T05:52:46.135Z,4.40
2023-04-07T05:55:13.081Z,4.40
2023-04-07T05:57:40.341Z,4.50
2023-04-07T06:00:07.884Z,4.50
2023-04-07T06:02:34.820Z,4.60
2023-04-07T06:05:01.843Z,4.70
2023-04-07T06:07:28.741Z,4.70
2023-04-07T06:09:55.626Z,4.80
2023-04-07T06:12:22.654Z,4.80
2023-04-07T06:14:56.495Z,4.80
2023-04-07T06:17:23.817Z,4.90
2023-04-07T06:19:50.689Z,4.90
2023-04-07T06:22:17.594Z,5.00
2023-04-07T06:24:44.529Z,5.30
2023-04-07T06:27:11.564Z,5.10
2023-04-07T06:29:38.474Z,5.20
2023-04-07T06:32:06.932Z,5.20
2023-04-07T06:34:33.704Z,5.20
2023-04-07T06:37:01.602Z,5.30
2023-04-07T06:39:28.582Z,5.30
2023-04-07T06:41:56.947Z,5.40
2023-04-07T06:44:24.149Z,5.50
2023-04-07T06:46:53.290Z,5.60
2023-04-07T06:49:20.670Z,5.60
2023-04-07T06:51:47.559Z,5.60
2023-04-07T06:54:14.936Z,5.70
2023-04-07T06:56:43.050Z,5.90
2023-04-07T06:59:11.139Z,6.60
2023-04-07T07:01:38.181Z,7.70
2023-04-07T07:04:07.998Z,8.40
2023-04-07T07:06:35.250Z,8.80
2023-04-07T07:09:03.209Z,9.30
2023-04-07T07:11:30.483Z,10.10
2023-04-07T07:13:57.389Z,11.00
2023-04-07T07:16:24.339Z,11.30
2023-04-07T07:18:51.590Z,11.70
2023-04-07T07:21:19.355Z,12.30
2023-04-07T07:23:47.015Z,12.60
2023-04-07T07:26:14.147Z,13.00
2023-04-07T07:28:41.118Z,13.30
2023-04-07T07:31:13.335Z,13.80
2023-04-07T07:33:41.489Z,14.00
2023-04-07T07:36:08.861Z,14.20
2023-04-07T07:38:37.571Z,13.50
2023-04-07T07:41:06.378Z,12.80
2023-04-07T07:43:33.225Z,12.70
2023-04-07T07:46:00.125Z,13.00
2023-04-07T07:48:27.099Z,13.40
2023-04-07T07:50:54.007Z,13.90
2023-04-07T07:53:20.896Z,14.20
2023-04-07T07:55:47.753Z,14.60
2023-04-07T07:58:14.653Z,14.10
2023-04-07T08:00:41.590Z,13.80
2023-04-07T08:03:08.590Z,14.00
2023-04-07T08:05:35.535Z,14.20
2023-04-07T08:08:03.075Z,14.70
2023-04-07T08:10:29.990Z,14.90
2023-04-07T08:12:56.898Z,15.00
2023-04-07T08:15:23.864Z,15.10
2023-04-07T08:17:50.674Z,14.80
2023-04-07T08:20:17.704Z,15.00
2023-04-07T08:22:44.487Z,15.30
2023-04-07T08:25:11.439Z,15.00
2023-04-07T08:27:38.422Z,14.70
2023-04-07T08:30:07.248Z,14.20
2023-04-07T08:32:38.141Z,14.60
2023-04-07T08:35:05.416Z,14.50
2023-04-07T08:37:33.926Z,14.00
2023-04-07T08:40:01.743Z,13.50
2023-04-07T08:42:31.267Z,13.20
2023-04-07T08:45:02.550Z,13.10
2023-04-07T08:47:33.567Z,12.90
2023-04-07T08:50:03.652Z,13.20
2023-04-07T08:52:54.443Z,12.90
2023-04-07T08:55:21.412Z,12.70
2023-04-07T08:57:48.785Z,13.00
2023-04-07T09:00:16.064Z,13.40
2023-04-07T09:02:45.689Z,13.50
2023-04-07T09:05:16.385Z,13.00
2023-04-07T09:07:43.619Z,12.40
2023-04-07T09:10:10.719Z,12.00
2023-04-07T09:12:38.660Z,11.90
2023-04-07T09:15:08.803Z,12.60
2023-04-07T09:17:36.163Z,13.10
2023-04-07T09:20:04.315Z,13.10
2023-04-07T09:22:42.703Z,12.70
2023-04-07T09:25:26.279Z,12.70
2023-04-07T09:28:04.002Z,13.10
2023-04-07T09:30:33.492Z,13.60
2023-04-07T09:33:01.782Z,13.80
2023-04-07T09:35:29.781Z,13.30
2023-04-07T09:38:10.156Z,13.60
2023-04-07T09:40:40.148Z,13.50
2023-04-07T09:43:14.381Z,12.90
2023-04-07T09:45:41.341Z,13.20
2023-04-07T09:48:18.159Z,12.80
2023-04-07T09:50:49.409Z,13.10
2023-04-07T09:53:17.059Z,13.20
2023-04-07T09:55:44.456Z,12.70
2023-04-07T09:58:14.676Z,12.90
2023-04-07T10:00:42.448Z,13.30
2023-04-07T10:03:09.667Z,13.80
2023-04-07T10:05:37.067Z,13.90
2023-04-07T10:08:06.607Z,13.90
2023-04-07T10:10:34.565Z,12.90
2023-04-07T10:13:04.690Z,13.20
2023-04-07T10:15:31.560Z,13.40
2023-04-07T10:17:59.766Z,13.70
2023-04-07T10:20:28.361Z,14.30
2023-04-07T10:23:01.376Z,14.10
2023-04-07T10:25:28.621Z,14.00
2023-04-07T10:28:04.952Z,13.80
2023-04-07T10:30:33.501Z,13.80
2023-04-07T10:33:00.582Z,13.60
2023-04-07T10:35:28.592Z,13.40
2023-04-07T10:38:07.589Z,13.90
2023-04-07T10:40:35.867Z,13.30
2023-04-07T10:43:03.180Z,13.10
2023-04-07T10:45:57.945Z,13.60
2023-04-07T10:48:25.959Z,13.70
2023-04-07T10:51:05.220Z,13.50
2023-04-07T10:53:32.396Z,13.50
2023-04-07T10:55:59.525Z,13.30
2023-04-07T10:58:30.850Z,13.00
2023-04-07T11:01:00.968Z,13.20
2023-04-07T11:03:29.745Z,13.50
2023-04-07T11:06:08.293Z,12.90
2023-04-07T11:08:36.546Z,13.10
2023-04-07T11:11:09.362Z,12.90
2023-04-07T11:13:43.783Z,12.50
2023-04-07T11:16:11.422Z,12.40
2023-04-07T11:18:39.068Z,12.40
2023-04-07T11:21:08.109Z,11.90
2023-04-07T11:23:40.071Z,12.20
2023-04-07T11:26:08.445Z,11.90
2023-04-07T11:28:37.903Z,11.70
2023-04-07T11:31:05.108Z,11.70
2023-04-07T11:33:34.851Z,11.70
2023-04-07T11:36:02.974Z,11.20
2023-04-07T11:38:35.734Z,11.50
2023-04-07T11:41:11.747Z,11.90
2023-04-07T11:43:41.762Z,11.80
2023-04-07T11:46:13.679Z,12.00
2023-04-07T11:48:42.484Z,12.00
2023-04-07T11:51:17.367Z,11.60
2023-04-07T11:53:44.938Z,11.40
2023-04-07T11:56:18.563Z,11.30
2023-04-07T11:58:53.253Z,11.30
2023-04-07T12:01:21.060Z,11.20
2023-04-07T12:04:04.960Z,11.00
2023-04-07T12:06:41.889Z,10.60
2023-04-07T12:09:26.428Z,10.70
2023-04-07T12:11:53.934Z,11.10
2023-04-07T12:14:20.741Z,11.10
2023-04-07T12:16:47.662Z,11.30
2023-04-07T12:19:14.689Z,11.00
2023-04-07T12:21:41.729Z,11.80
2023-04-07T12:24:08.594Z,11.90
2023-04-07T12:26:35.404Z,11.40
2023-04-07T12:29:05.265Z,11.10
2023-04-07T12:31:32.929Z,11.20
2023-04-07T12:34:00.176Z,10.90
2023-04-07T12:36:27.672Z,11.20
2023-04-07T12:38:54.978Z,11.30
2023-04-07T12:41:22.360Z,11.20
2023-04-07T12:43:49.783Z,11.20
2023-04-07T12:46:17.125Z,11.00
2023-04-07T12:48:44.395Z,10.80
2023-04-07T12:51:11.467Z,10.90
2023-04-07T12:53:38.329Z,10.90
2023-04-07T12:56:05.440Z,11.10
2023-04-07T12:58:33.177Z,11.10
2023-04-07T13:01:01.289Z,11.10
2023-04-07T13:03:28.309Z,11.00
2023-04-07T13:05:55.860Z,11.10
2023-04-07T13:08:22.810Z,11.20
2023-04-07T13:10:49.703Z,11.10
2023-04-07T13:13:16.582Z,11.30
2023-04-07T13:15:43.437Z,11.10
2023-04-07T13:18:10.386Z,11.10
2023-04-07T13:20:38.121Z,11.50
2023-04-07T13:23:09.585Z,11.00
2023-04-07T13:25:37.575Z,10.30
2023-04-07T13:28:04.744Z,10.30
2023-04-07T13:30:31.757Z,10.20
2023-04-07T13:32:58.888Z,10.10
2023-04-07T13:35:26.224Z,10.00
2023-04-07T13:37:53.163Z,10.00
2023-04-07T13:40:20.053Z,9.90
2023-04-07T13:42:46.904Z,9.80
2023-04-07T13:45:13.993Z,10.10
2023-04-07T13:47:40.872Z,10.50
2023-04-07T13:50:08.021Z,10.70
2023-04-07T13:52:35.512Z,10.60
2023-04-07T13:55:04.236Z,10.60
2023-04-07T13:57:31.499Z,10.30
2023-04-07T13:59:58.399Z,10.20
2023-04-07T14:02:28.059Z,9.90
2023-04-07T14:04:55.554Z,9.90
2023-04-07T14:07:23.076Z,9.80
2023-04-07T14:09:50.378Z,9.70
2023-04-07T14:12:17.264Z,9.40
2023-04-07T14:14:44.153Z,9.40
2023-04-07T14:17:11.184Z,9.50
2023-04-07T14:19:37.988Z,9.70
2023-04-07T14:22:04.817Z,9.60
2023-04-07T14:24:31.627Z,9.50
2023-04-07T14:26:58.528Z,9.50
2023-04-07T14:29:25.314Z,9.20
2023-04-07T14:31:52.349Z,9.30
2023-04-07T14:34:19.161Z,9.40
2023-04-07T14:36:57.108Z,9.10
2023-04-07T14:39:24.183Z,8.80
2023-04-07T14:41:55.541Z,9.00
2023-04-07T14:44:22.947Z,9.10
2023-04-07T14:46:49.895Z,8.90
2023-04-07T14:49:16.849Z,8.70
2023-04-07T14:51:44.596Z,8.50
2023-04-07T14:54:11.561Z,8.30
2023-04-07T14:56:38.518Z,8.20
2023-04-07T14:59:05.761Z,8.30
2023-04-07T15:01:32.787Z,8.40
2023-04-07T15:04:01.016Z,8.70
2023-04-07T15:06:28.058Z,8.80
2023-04-07T15:08:55.295Z,8.60
2023-04-07T15:11:22.098Z,8.50
2023-04-07T15:13:49.345Z,8.50
2023-04-07T15:16:16.449Z,8.20
2023-04-07T15:18:45.328Z,8.00
2023-04-07T15:21:13.610Z,7.90
2023-04-07T15:23:41.890Z,7.80
2023-04-07T15:26:09.973Z,7.60
2023-04-07T15:28:37.354Z,7.70
2023-04-07T15:31:08.665Z,7.60
2023-04-07T15:33:36.862Z,7.70
2023-04-07T15:36:05.145Z,7.70
2023-04-07T15:38:32.096Z,7.80
2023-04-07T15:40:59.045Z,7.80
2023-04-07T15:43:25.953Z,7.80
2023-04-07T15:45:55.793Z,7.80
2023-04-07T15:48:22.966Z,7.60
2023-04-07T15:50:49.931Z,7.50
2023-04-07T15:53:16.781Z,7.60
2023-04-07T15:55:44.313Z,7.70
2023-04-07T15:58:11.232Z,7.70
2023-04-07T16:00:39.254Z,7.50
2023-04-07T16:03:06.496Z,7.30
2023-04-07T16:05:33.570Z,7.30
2023-04-07T16:08:00.457Z,7.10
2023-04-07T16:10:27.405Z,7.00
2023-04-07T16:12:54.244Z,7.00
2023-04-07T16:15:36.485Z,7.00
2023-04-07T16:18:08.354Z,7.00
2023-04-07T16:20:35.229Z,7.10
2023-04-07T16:23:02.157Z,7.20
2023-04-07T16:25:29.155Z,7.10
2023-04-07T16:27:56.306Z,7.10
2023-04-07T16:30:25.095Z,6.90
2023-04-07T16:32:52.158Z,6.90
2023-04-07T16:35:19.305Z,6.90
2023-04-07T16:37:46.608Z,6.80
2023-04-07T16:40:13.790Z,6.90
2023-04-07T16:42:40.869Z,6.90
2023-04-07T16:45:08.174Z,6.80
2023-04-07T16:47:35.613Z,6.90
2023-04-07T16:50:04.224Z,6.80
2023-04-07T16:52:31.477Z,6.90
2023-04-07T16:54:58.492Z,6.70
2023-04-07T16:57:25.408Z,6.60
2023-04-07T16:59:52.649Z,6.60
2023-04-07T17:02:19.821Z,6.50
2023-04-07T17:04:46.953Z,6.60
2023-04-07T17:07:13.805Z,6.40
2023-04-07T17:09:40.707Z,6.50
2023-04-07T17:12:07.744Z,6.50
2023-04-07T17:14:34.741Z,6.30
2023-04-07T17:17:02.230Z,6.30
2023-04-07T17:19:29.453Z,6.30
2023-04-07T17:21:56.517Z,6.40
2023-04-07T17:24:23.847Z,6.40
2023-04-07T17:26:50.957Z,6.40
2023-04-07T17:29:18.064Z,6.30
2023-04-07T17:31:44.882Z,6.20
2023-04-07T17:34:12.069Z,6.20
2023-04-07T17:36:38.970Z,6.10
2023-04-07T17:39:06.028Z,6.10
2023-04-07T17:41:38.039Z,6.20
2023-04-07T17:44:05.272Z,6.20
2023-04-07T17:46:32.274Z,6.30
2023-04-07T17:48:59.461Z,6.40
2023-04-07T17:51:27.568Z,6.30
2023-04-07T17:53:55.073Z,6.30
2023-04-07T17:56:22.129Z,6.50
2023-04-07T17:58:49.102Z,6.40
2023-04-07T18:01:17.056Z,6.30
2023-04-07T18:03:44.220Z,6.30
2023-04-07T18:06:16.857Z,6.40
2023-04-07T18:08:48.637Z,6.40
2023-04-07T18:11:17.155Z,6.40
2023-04-07T18:13:44.846Z,6.30
2023-04-07T18:16:17.301Z,6.30
2023-04-07T18:18:46.396Z,6.30
2023-04-07T18:21:13.203Z,6.30
2023-04-07T18:23:40.079Z,6.30
2023-04-07T18:26:07.082Z,6.20
2023-04-07T18:28:34.851Z,6.20
2023-04-07T18:31:04.533Z,6.20
2023-04-07T18:33:33.081Z,6.30
2023-04-07T18:36:05.023Z,6.30
2023-04-07T18:38:31.956Z,6.30
2023-04-07T18:40:59.611Z,6.40
2023-04-07T18:43:27.936Z,6.40
2023-04-07T18:45:54.895Z,6.30
2023-04-07T18:48:21.842Z,6.40
2023-04-07T18:50:53.092Z,6.40
2023-04-07T18:53:21.549Z,6.40
2023-04-07T18:55:49.530Z,6.30
2023-04-07T18:58:16.385Z,6.30
2023-04-07T19:00:44.503Z,6.20
2023-04-07T19:03:11.884Z,6.20
2023-04-07T19:05:42.228Z,6.20
2023-04-07T19:08:09.815Z,6.20
2023-04-07T19:10:36.809Z,6.20
2023-04-07T19:13:04.802Z,6.30
2023-04-07T19:15:34.287Z,6.30
2023-04-07T19:18:02.325Z,6.30
2023-04-07T19:20:30.113Z,6.20
2023-04-07T19:23:00.311Z,6.20
2023-04-07T19:25:27.401Z,6.20
2023-04-07T19:27:54.388Z,6.20
2023-04-07T19:30:21.460Z,6.20
2023-04-07T19:32:48.347Z,6.20
2023-04-07T19:35:16.369Z,6.20
2023-04-07T19:37:43.268Z,6.20
2023-04-07T19:40:10.807Z,6.30
2023-04-07T19:42:39.403Z,6.10
2023-04-07T19:45:08.226Z,6.20
2023-04-07T19:47:36.100Z,6.20
2023-04-07T19:50:04.109Z,6.20
2023-04-07T19:52:32.119Z,6.20
2023-04-07T19:54:59.930Z,6.10
2023-04-07T19:57:28.518Z,6.10
2023-04-07T19:59:55.400Z,6.10
2023-04-07T20:02:22.279Z,6.20
2023-04-07T20:04:49.580Z,6.10
2023-04-07T20:07:16.501Z,6.00
2023-04-07T20:09:43.868Z,6.00
2023-04-07T20:12:10.899Z,5.90
2023-04-07T20:14:37.797Z,5.90
2023-04-07T20:17:04.677Z,5.90
2023-04-07T20:19:31.679Z,5.90
2023-04-07T20:21:58.489Z,6.00
2023-04-07T20:24:25.766Z,6.00
2023-04-07T20:26:52.564Z,6.10
2023-04-07T20:29:21.113Z,6.10
2023-04-07T20:31:49.163Z,6.10
2023-04-07T20:34:16.634Z,6.10
2023-04-07T20:36:43.672Z,6.00
2023-04-07T20:39:10.681Z,6.00
2023-04-07T20:41:37.763Z,6.00
2023-04-07T20:44:04.806Z,6.00
2023-04-07T20:46:33.698Z,6.00
2023-04-07T20:49:00.859Z,6.00
2023-04-07T20:51:28.850Z,6.00
2023-04-07T20:53:55.708Z,6.00
2023-04-07T20:56:23.715Z,5.90
2023-04-07T20:58:50.922Z,6.00
2023-04-07T21:01:18.031Z,6.00
2023-04-07T21:03:45.071Z,5.90
2023-04-07T21:06:12.056Z,6.10
2023-04-07T21:08:39.475Z,6.20
2023-04-07T21:11:06.356Z,6.20
2023-04-07T21:13:33.216Z,6.20
2023-04-07T21:16:01.308Z,6.10
2023-04-07T21:18:28.279Z,6.20
2023-04-07T21:20:57.743Z,6.20
2023-04-07T21:23:24.598Z,6.20
2023-04-07T21:25:51.432Z,6.10
2023-04-07T21:28:18.232Z,6.20
2023-04-07T21:30:45.196Z,6.20
2023-04-07T21:33:13.575Z,6.20
2023-04-07T21:35:40.575Z,6.20
2023-04-07T21:38:07.487Z,6.30
2023-04-07T21:40:34.322Z,6.30
2023-04-07T21:43:02.498Z,6.30
2023-04-07T21:45:29.775Z,6.30
2023-04-07T21:47:56.848Z,6.40
2023-04-07T21:50:24.345Z,6.40
2023-04-07T21:52:52.077Z,6.40
2023-04-07T21:55:19.077Z,6.40
2023-04-07T21:57:46.631Z,6.40
2023-04-07T22:00:14.217Z,6.40
2023-04-07T22:02:41.496Z,6.40
2023-04-07T22:05:09.038Z,6.50
2023-04-07T22:07:36.192Z,6.30
2023-04-07T22:10:03.587Z,6.40
2023-04-07T22:12:30.460Z,6.40
2023-04-07T22:14:57.286Z,6.30
2023-04-07T22:17:24.198Z,6.30
2023-04-07T22:19:51.025Z,6.40
2023-04-07T22:22:18.044Z,6.40
2023-04-07T22:24:44.920Z,6.30
2023-04-07T22:27:11.827Z,6.30
2023-04-07T22:29:38.636Z,6.40
2023-04-07T22:32:05.863Z,6.30
2023-04-07T22:34:32.685Z,6.30
2023-04-07T22:36:59.503Z,6.40
2023-04-07T22:39:26.769Z,6.40
2023-04-07T22:41:53.576Z,6.50
2023-04-07T22:44:20.818Z,6.50
2023-04-07T22:46:47.790Z,6.50
2023-04-07T22:49:14.701Z,6.40
2023-04-07T22:51:41.589Z,6.50
2023-04-07T22:54:08.438Z,6.40
2023-04-07T22:56:36.386Z,6.40
2023-04-07T22:59:05.869Z,6.50
2023-04-07T23:01:33.346Z,6.40
2023-04-07T23:04:00.395Z,6.50
2023-04-07T23:06:31.462Z,6.50
2023-04-07T23:08:58.313Z,6.40
2023-04-07T23:11:25.415Z,6.40
2023-04-07T23:13:52.392Z,6.40
2023-04-07T23:16:19.286Z,6.50
2023-04-07T23:18:46.276Z,6.50
2023-04-07T23:21:13.696Z,6.50
2023-04-07T23:23:40.524Z,6.40
2023-04-07T23:26:07.360Z,6.50
2023-04-07T23:28:34.191Z,6.40
2023-04-07T23:31:02.149Z,6.50
2023-04-07T23:33:31.725Z,6.50
2023-04-07T23:35:58.986Z,6.40
2023-04-07T23:38:26.286Z,6.50
2023-04-07T23:40:53.418Z,6.60
2023-04-07T23:43:20.610Z,6.60
2023-04-07T23:45:47.795Z,6.60
2023-04-07T23:48:15.519Z,6.50
2023-04-07T23:50:42.475Z,6.50
2023-04-07T23:53:09.272Z,6.40
2023-04-07T23:55:36.153Z,6.50
2023-04-07T23:58:03.001Z,6.50
